Time;durP1;ratioP1;P1;durP2;ratioP2;P2;SDS_P1;SDS_P2;PMS_P1;PMS_P2;Temp;Humidity;BMP_temperature;BMP_pressure;BME280_temperature;BME280_humidity;BME280_pressure;Samples;Min_cycle;Max_cycle;Signal;HPM_P1;HPM_P2
2023/09/09 00:01:30;;;;;;;4.18;2.65;;;21.00;1.00;;;;;;5117527;28;20435;-61
2023/09/09 00:03:57;;;;;;;4.45;2.65;;;21.00;1.00;;;;;;5118469;27;20428;-61
2023/09/09 00:06:24;;;;;;;3.30;2.70;;;20.90;1.00;;;;;;5117844;28;20506;-60
2023/09/09 00:08:52;;;;;;;3.47;2.53;;;20.90;1.00;;;;;;5118720;27;20874;-60
2023/09/09 00:11:19;;;;;;;3.10;2.42;;;20.90;1.00;;;;;;5117749;27;20575;-59
2023/09/09 00:13:46;;;;;;;3.15;2.85;;;20.90;1.00;;;;;;5121194;27;20430;-60
2023/09/09 00:16:15;;;;;;;3.28;2.97;;;20.90;1.00;;;;;;5118434;27;20419;-60
2023/09/09 00:18:42;;;;;;;3.45;2.80;;;21.00;1.00;;;;;;5134443;27;20430;-60
2023/09/09 00:21:10;;;;;;;4.30;3.30;;;21.00;1.00;;;;;;5136140;27;20431;-60
2023/09/09 00:23:37;;;;;;;3.22;2.88;;;21.10;1.00;;;;;;5135424;27;20806;-60
2023/09/09 00:26:04;;;;;;;3.92;3.50;;;21.10;1.00;;;;;;5133433;27;20914;-60
2023/09/09 00:28:31;;;;;;;4.75;3.65;;;21.10;1.00;;;;;;5136698;27;20429;-60
2023/09/09 00:30:58;;;;;;;4.60;3.70;;;21.00;1.00;;;;;;5132610;27;20515;-61
2023/09/09 00:33:27;;;;;;;3.83;3.33;;;21.00;1.00;;;;;;5137999;27;20430;-59
2023/09/09 00:35:54;;;;;;;3.85;3.45;;;21.00;1.00;;;;;;5135358;27;20422;-60
2023/09/09 00:38:21;;;;;;;5.03;4.20;;;21.00;1.00;;;;;;5116809;28;20519;-60
2023/09/09 00:41:10;;;;;;;4.60;3.88;;;21.00;1.00;;;;;;5118318;27;20858;-61
2023/09/09 00:43:38;;;;;;;5.45;3.67;;;20.90;1.00;;;;;;5138152;27;20482;-60
2023/09/09 00:46:06;;;;;;;4.10;3.70;;;20.90;1.00;;;;;;5131902;27;20464;-60
2023/09/09 00:48:35;;;;;;;6.60;3.93;;;20.90;1.00;;;;;;5137765;27;20429;-60
2023/09/09 00:51:02;;;;;;;4.55;4.00;;;20.80;1.00;;;;;;5131329;27;20426;-60
2023/09/09 00:53:31;;;;;;;4.07;3.50;;;20.80;1.00;;;;;;5124524;27;20467;-59
2023/09/09 00:55:59;;;;;;;6.10;3.75;;;20.80;1.00;;;;;;5121068;27;20957;-61
2023/09/09 00:58:30;;;;;;;4.50;3.75;;;20.80;1.00;;;;;;5115957;28;20412;-60
2023/09/09 01:00:57;;;;;;;3.50;3.20;;;20.80;1.00;;;;;;5117736;27;20514;-60
2023/09/09 01:03:24;;;;;;;4.50;3.30;;;20.80;1.00;;;;;;5116017;28;20422;-60
2023/09/09 01:05:56;;;;;;;3.75;2.88;;;20.70;1.00;;;;;;5117428;27;20427;-60
2023/09/09 01:08:27;;;;;;;4.70;3.50;;;20.70;1.00;;;;;;5105173;28;20462;-60
2023/09/09 01:10:54;;;;;;;3.50;2.70;;;20.70;1.00;;;;;;5113540;27;20452;-60
2023/09/09 01:13:22;;;;;;;3.58;3.28;;;20.80;1.00;;;;;;5115375;28;20509;-60
2023/09/09 01:15:49;;;;;;;4.00;3.60;;;20.80;1.00;;;;;;5118209;27;20463;-59
2023/09/09 01:18:17;;;;;;;5.03;4.27;;;20.70;1.00;;;;;;5115924;28;20723;-60
2023/09/09 01:20:51;;;;;;;4.50;3.10;;;20.60;1.00;;;;;;5131427;27;20852;-60
2023/09/09 01:23:19;;;;;;;3.80;3.10;;;20.50;1.00;;;;;;5131831;27;20433;-60
2023/09/09 01:25:46;;;;;;;6.20;3.60;;;20.50;1.00;;;;;;5133529;27;20449;-60
2023/09/09 01:28:14;;;;;;;3.93;3.10;;;20.50;1.00;;;;;;5134181;27;20422;-61
2023/09/09 01:30:42;;;;;;;3.20;2.60;;;20.50;1.00;;;;;;5116449;28;20435;-60
2023/09/09 01:33:09;;;;;;;3.90;2.75;;;20.40;1.00;;;;;;5116434;27;20785;-61
2023/09/09 01:35:36;;;;;;;3.58;3.00;;;20.40;1.00;;;;;;5116377;28;20431;-60
2023/09/09 01:38:03;;;;;;;4.25;3.20;;;20.40;1.00;;;;;;5116041;27;20534;-60
2023/09/09 01:40:32;;;;;;;2.75;2.40;;;20.30;1.00;;;;;;5136893;27;20407;-60
2023/09/09 01:42:59;;;;;;;3.20;2.70;;;20.40;1.00;;;;;;5131855;27;20756;-62
2023/09/09 01:45:26;;;;;;;3.67;3.10;;;20.30;1.00;;;;;;5116570;28;20791;-60
2023/09/09 01:47:54;;;;;;;3.38;3.00;;;20.30;1.00;;;;;;5119518;27;20486;-60
2023/09/09 01:50:21;;;;;;;3.20;2.80;;;20.30;1.00;;;;;;5115705;28;20420;-60
2023/09/09 01:52:48;;;;;;;3.30;3.00;;;20.30;1.00;;;;;;5115415;27;20414;-60
2023/09/09 01:55:15;;;;;;;4.00;3.10;;;20.30;1.00;;;;;;5115290;28;20789;-60
2023/09/09 01:57:44;;;;;;;2.78;2.22;;;20.40;1.00;;;;;;5120343;27;20427;-60
2023/09/09 02:00:12;;;;;;;3.25;2.95;;;20.50;1.00;;;;;;5136821;27;20505;-60
2023/09/09 02:02:39;;;;;;;3.00;2.70;;;20.50;1.00;;;;;;5123712;27;20438;-60
2023/09/09 02:05:07;;;;;;;5.13;2.73;;;20.50;1.00;;;;;;5114854;28;20435;-60
2023/09/09 02:07:34;;;;;;;4.90;3.00;;;20.30;1.00;;;;;;5114676;28;20420;-60
2023/09/09 02:10:01;;;;;;;3.90;3.00;;;20.30;1.00;;;;;;5114827;28;20430;-59
2023/09/09 02:12:30;;;;;;;3.60;2.50;;;20.20;1.00;;;;;;5112839;28;20420;-58
2023/09/09 02:14:58;;;;;;;3.20;2.63;;;20.10;1.00;;;;;;5132852;27;20857;-61
2023/09/09 02:17:25;;;;;;;3.65;2.47;;;20.10;1.00;;;;;;5130674;27;20472;-59
2023/09/09 02:19:54;;;;;;;3.05;2.60;;;20.00;1.00;;;;;;5133567;27;20414;-60
2023/09/09 02:22:22;;;;;;;2.80;2.45;;;20.00;1.00;;;;;;5133867;27;20729;-62
2023/09/09 02:24:53;;;;;;;3.67;2.40;;;20.10;1.00;;;;;;5117003;28;20872;-61
2023/09/09 02:27:21;;;;;;;3.15;2.85;;;20.10;1.00;;;;;;5116529;27;20470;-60
2023/09/09 02:29:48;;;;;;;3.00;2.08;;;20.00;1.00;;;;;;5114390;28;20526;-60
2023/09/09 02:32:17;;;;;;;2.90;2.60;;;20.00;1.00;;;;;;5114688;28;20428;-60
2023/09/09 02:34:44;;;;;;;2.80;2.40;;;20.00;1.00;;;;;;5133698;27;20519;-60
2023/09/09 02:37:13;;;;;;;3.92;2.97;;;19.90;1.00;;;;;;5115166;28;20511;-60
2023/09/09 02:39:41;;;;;;;3.55;2.70;;;19.80;1.00;;;;;;5134768;28;20434;-61
2023/09/09 02:42:11;;;;;;;3.60;2.30;;;19.80;1.00;;;;;;5130761;28;20443;-61
2023/09/09 02:44:38;;;;;;;2.80;2.30;;;19.80;1.00;;;;;;5136032;28;20893;-60
2023/09/09 02:47:05;;;;;;;3.20;2.22;;;19.80;1.00;;;;;;5131352;28;20514;-60
2023/09/09 02:49:34;;;;;;;3.08;2.65;;;19.70;1.00;;;;;;5115335;28;20413;-60
2023/09/09 02:52:01;;;;;;;3.30;2.30;;;19.80;1.00;;;;;;5116404;28;20859;-60
2023/09/09 02:54:28;;;;;;;5.00;2.55;;;19.70;1.00;;;;;;5115291;28;20827;-60
2023/09/09 02:56:56;;;;;;;4.28;2.20;;;19.70;1.00;;;;;;5116303;28;20918;-60
2023/09/09 02:59:24;;;;;;;3.30;2.35;;;19.70;1.00;;;;;;5133362;27;20421;-60
2023/09/09 03:01:52;;;;;;;3.13;2.60;;;19.70;1.00;;;;;;5131635;28;20422;-60
2023/09/09 03:04:20;;;;;;;2.92;2.63;;;19.70;1.00;;;;;;5135803;28;20414;-60
2023/09/09 03:06:48;;;;;;;3.45;3.15;;;19.70;1.00;;;;;;5133787;28;20453;-60
2023/09/09 03:09:16;;;;;;;3.30;3.00;;;19.70;1.00;;;;;;5135559;28;20900;-60
2023/09/09 03:11:43;;;;;;;4.53;2.78;;;19.60;1.00;;;;;;5129520;28;20430;-59
2023/09/09 03:14:10;;;;;;;2.88;2.35;;;19.70;1.00;;;;;;5135534;28;20717;-60
2023/09/09 03:16:38;;;;;;;3.75;2.55;;;19.60;1.00;;;;;;5125256;28;20510;-60
2023/09/09 03:19:05;;;;;;;4.07;2.17;;;19.60;1.00;;;;;;5115495;28;20423;-59
2023/09/09 03:21:32;;;;;;;5.35;2.67;;;19.70;1.00;;;;;;5121152;27;20430;-60
2023/09/09 03:24:01;;;;;;;4.22;3.20;;;19.60;1.00;;;;;;5135603;27;20713;-59
2023/09/09 03:26:28;;;;;;;3.53;2.90;;;19.70;1.00;;;;;;5127272;27;20518;-60
2023/09/09 03:28:55;;;;;;;4.90;2.70;;;19.70;1.00;;;;;;5118592;28;20841;-60
2023/09/09 03:31:22;;;;;;;3.85;2.50;;;19.60;1.00;;;;;;5129123;27;20458;-60
2023/09/09 03:33:49;;;;;;;5.53;2.60;;;19.60;1.00;;;;;;5139222;27;20490;-61
2023/09/09 03:36:17;;;;;;;3.80;2.40;;;19.60;1.00;;;;;;5132981;27;20426;-60
2023/09/09 03:38:44;;;;;;;3.90;3.50;;;19.50;1.00;;;;;;5122924;27;20432;-61
2023/09/09 03:41:12;;;;;;;6.10;2.65;;;19.50;1.00;;;;;;5124284;27;20519;-59
2023/09/09 03:43:39;;;;;;;3.70;3.10;;;19.50;1.00;;;;;;5118731;28;20463;-60
2023/09/09 03:46:07;;;;;;;6.22;3.17;;;19.50;1.00;;;;;;5131248;27;20517;-60
2023/09/09 03:48:34;;;;;;;5.07;2.90;;;19.50;1.00;;;;;;5139544;27;20425;-59
2023/09/09 03:51:02;;;;;;;4.75;3.10;;;19.50;1.00;;;;;;5121474;27;20738;-59
2023/09/09 03:53:30;;;;;;;5.70;2.60;;;19.50;1.00;;;;;;5118668;27;20484;-60
2023/09/09 03:55:59;;;;;;;4.43;2.85;;;19.50;1.00;;;;;;5133252;27;20760;-59
2023/09/09 03:58:28;;;;;;;6.40;3.70;;;19.50;1.00;;;;;;5137184;27;20730;-60
2023/09/09 04:01:05;;;;;;;6.05;3.22;;;19.50;1.00;;;;;;5134621;27;20509;-59
2023/09/09 04:03:34;;;;;;;3.75;2.28;;;19.50;1.00;;;;;;5134383;27;20432;-60
2023/09/09 04:06:06;;;;;;;3.70;3.10;;;19.50;1.00;;;;;;5117382;28;20516;-60
2023/09/09 04:08:33;;;;;;;5.97;3.55;;;19.50;1.00;;;;;;5118065;27;20432;-60
2023/09/09 04:11:00;;;;;;;3.17;2.92;;;19.60;1.00;;;;;;5136355;27;20417;-59
2023/09/09 04:13:29;;;;;;;4.43;3.50;;;19.50;1.00;;;;;;5127153;27;20885;-60
2023/09/09 04:15:57;;;;;;;3.20;2.90;;;19.60;1.00;;;;;;5116259;28;20855;-60
2023/09/09 04:18:25;;;;;;;4.60;3.40;;;19.50;1.00;;;;;;5120520;27;20430;-61
2023/09/09 04:20:53;;;;;;;3.55;3.20;;;19.60;1.00;;;;;;5135814;27;20414;-61
2023/09/09 04:23:20;;;;;;;3.58;3.00;;;19.50;1.00;;;;;;5112806;27;20431;-59
2023/09/09 04:25:48;;;;;;;3.45;2.58;;;19.60;1.00;;;;;;5110044;28;20408;-60
2023/09/09 04:28:15;;;;;;;3.80;2.60;;;19.60;1.00;;;;;;5116747;27;20426;-60
2023/09/09 04:30:45;;;;;;;2.70;2.50;;;19.60;1.00;;;;;;5115220;28;20505;-60
2023/09/09 04:33:13;;;;;;;4.32;2.83;;;19.60;1.00;;;;;;5119193;27;20910;-60
2023/09/09 04:35:40;;;;;;;3.90;3.35;;;19.60;1.00;;;;;;5117446;28;20420;-59
2023/09/09 04:38:09;;;;;;;4.07;2.47;;;19.60;1.00;;;;;;5120266;27;20430;-58
2023/09/09 04:40:37;;;;;;;4.10;2.60;;;19.60;1.00;;;;;;5128851;27;20415;-58
2023/09/09 04:43:05;;;;;;;3.45;3.10;;;19.50;1.00;;;;;;5132310;27;20532;-58
2023/09/09 04:45:32;;;;;;;3.75;2.50;;;19.50;1.00;;;;;;5136647;27;20426;-59
2023/09/09 04:48:00;;;;;;;4.95;3.03;;;19.50;1.00;;;;;;5118697;27;20420;-59
2023/09/09 04:50:27;;;;;;;3.78;3.47;;;19.50;1.00;;;;;;5115310;28;20768;-58
2023/09/09 04:52:55;;;;;;;3.97;3.35;;;19.50;1.00;;;;;;5116858;27;20712;-59
2023/09/09 04:55:22;;;;;;;4.00;3.00;;;19.60;1.00;;;;;;5113864;27;20834;-59
2023/09/09 04:57:49;;;;;;;4.55;3.10;;;19.80;1.00;;;;;;5115686;27;20471;-59
2023/09/09 05:00:17;;;;;;;3.17;2.70;;;19.80;1.00;;;;;;5116633;28;20731;-59
2023/09/09 05:02:46;;;;;;;3.60;2.70;;;19.90;1.00;;;;;;5116023;28;21328;-59
2023/09/09 05:05:14;;;;;;;4.05;3.40;;;20.10;1.00;;;;;;5117227;28;20426;-60
2023/09/09 05:07:41;;;;;;;4.60;3.05;;;20.00;1.00;;;;;;5123598;27;20430;-58
2023/09/09 05:10:09;;;;;;;4.35;2.90;;;20.00;1.00;;;;;;5137430;27;20457;-59
2023/09/09 05:12:37;;;;;;;4.03;3.20;;;19.90;1.00;;;;;;5135531;27;20520;-59
2023/09/09 05:15:06;;;;;;;5.45;3.25;;;19.80;1.00;;;;;;5137790;27;20427;-58
2023/09/09 05:17:33;;;;;;;4.60;2.50;;;19.80;1.00;;;;;;5120152;27;20488;-59
2023/09/09 05:20:01;;;;;;;3.00;2.67;;;19.90;1.00;;;;;;5116629;28;20421;-60
2023/09/09 05:22:29;;;;;;;3.70;3.00;;;19.80;1.00;;;;;;5133996;27;20426;-59
2023/09/09 05:24:56;;;;;;;2.92;2.42;;;19.70;1.00;;;;;;5134311;27;20421;-59
2023/09/09 05:27:24;;;;;;;2.95;2.03;;;19.60;1.00;;;;;;5123991;27;20442;-59
2023/09/09 05:29:51;;;;;;;3.23;2.70;;;19.60;1.00;;;;;;5116332;28;20426;-60
2023/09/09 05:32:18;;;;;;;2.67;2.38;;;19.70;1.00;;;;;;5116512;28;20450;-59
2023/09/09 05:34:45;;;;;;;4.05;2.70;;;19.70;1.00;;;;;;5116169;28;20477;-59
2023/09/09 05:37:13;;;;;;;3.88;2.30;;;19.60;1.00;;;;;;5116358;28;20462;-59
2023/09/09 05:39:41;;;;;;;3.70;2.77;;;19.60;1.00;;;;;;5116316;28;20507;-59
2023/09/09 05:42:08;;;;;;;5.32;3.20;;;19.60;1.00;;;;;;5115930;28;20505;-60
2023/09/09 05:44:36;;;;;;;4.28;2.40;;;19.80;1.00;;;;;;5115608;28;20514;-60
2023/09/09 05:47:06;;;;;;;4.25;2.80;;;19.90;1.00;;;;;;5115791;28;20704;-60
2023/09/09 05:49:34;;;;;;;3.33;2.67;;;19.90;1.00;;;;;;5115842;28;20423;-60
2023/09/09 05:52:01;;;;;;;4.32;2.67;;;19.90;1.00;;;;;;5116274;28;20554;-60
2023/09/09 05:54:28;;;;;;;4.53;3.33;;;19.80;1.00;;;;;;5115623;28;20450;-60
2023/09/09 05:56:57;;;;;;;3.85;3.30;;;19.80;1.00;;;;;;5114987;28;20424;-60
2023/09/09 05:59:24;;;;;;;3.90;2.50;;;19.70;1.00;;;;;;5115908;28;20424;-60
2023/09/09 06:01:51;;;;;;;3.33;2.97;;;19.70;1.00;;;;;;5116078;28;20412;-60
2023/09/09 06:04:18;;;;;;;3.20;2.80;;;19.80;1.00;;;;;;5114495;28;20438;-59
2023/09/09 06:06:46;;;;;;;3.10;2.77;;;19.80;1.00;;;;;;5115170;28;20524;-60
2023/09/09 06:09:13;;;;;;;4.40;3.42;;;19.90;1.00;;;;;;5115711;28;20526;-59
2023/09/09 06:11:41;;;;;;;4.65;3.20;;;20.00;1.00;;;;;;5114772;28;20427;-59
2023/09/09 06:14:09;;;;;;;3.80;3.33;;;20.10;1.00;;;;;;5115793;28;20870;-59
2023/09/09 06:16:36;;;;;;;3.63;3.22;;;20.20;1.00;;;;;;5115136;28;20418;-60
2023/09/09 06:19:04;;;;;;;3.28;2.80;;;20.30;1.00;;;;;;5115975;28;20499;-60
2023/09/09 06:21:31;;;;;;;3.70;2.78;;;20.40;1.00;;;;;;5115715;28;20434;-60
2023/09/09 06:23:58;;;;;;;4.57;3.10;;;20.50;1.00;;;;;;5094618;28;20525;-59
2023/09/09 06:26:30;;;;;;;6.25;3.90;;;20.60;1.00;;;;;;5114834;28;20907;-59
2023/09/09 06:28:57;;;;;;;4.90;3.60;;;20.60;1.00;;;;;;5115569;28;20791;-59
2023/09/09 06:31:26;;;;;;;4.50;3.00;;;20.60;1.00;;;;;;5113843;28;20755;-59
2023/09/09 06:33:53;;;;;;;4.72;3.90;;;20.70;1.00;;;;;;5112817;28;20499;-59
2023/09/09 06:36:21;;;;;;;4.25;2.90;;;20.70;1.00;;;;;;5113486;28;20518;-60
2023/09/09 06:38:49;;;;;;;4.15;3.45;;;20.70;1.00;;;;;;5114210;28;20420;-59
2023/09/09 06:41:16;;;;;;;4.10;3.70;;;20.70;1.00;;;;;;5113173;28;20419;-59
2023/09/09 06:43:44;;;;;;;3.50;3.20;;;20.60;1.00;;;;;;5112597;28;20523;-58
2023/09/09 06:46:11;;;;;;;3.20;2.80;;;20.60;1.00;;;;;;5098232;28;20718;-59
2023/09/09 06:48:39;;;;;;;3.95;2.97;;;20.60;1.00;;;;;;5115176;28;20454;-59
2023/09/09 06:51:07;;;;;;;4.30;3.00;;;20.70;1.00;;;;;;5115181;28;20481;-58
2023/09/09 06:53:34;;;;;;;5.10;3.37;;;20.80;1.00;;;;;;5097972;28;20426;-59
2023/09/09 06:56:01;;;;;;;4.55;3.70;;;20.90;1.00;;;;;;5112896;28;20449;-60
2023/09/09 06:58:28;;;;;;;2.80;2.45;;;21.00;1.00;;;;;;5114061;28;20507;-59
2023/09/09 07:00:55;;;;;;;3.30;3.00;;;21.10;1.00;;;;;;5118877;28;20471;-58
2023/09/09 07:03:22;;;;;;;3.72;3.20;;;21.20;1.00;;;;;;5118572;28;20526;-59
2023/09/09 07:05:51;;;;;;;4.40;3.90;;;21.20;1.00;;;;;;5120058;27;20470;-59
2023/09/09 07:08:18;;;;;;;3.83;3.47;;;21.20;1.00;;;;;;5139700;27;20422;-59
2023/09/09 07:10:52;;;;;;;4.80;2.90;;;21.30;1.00;;;;;;5140006;27;20769;-59
2023/09/09 07:13:21;;;;;;;4.90;3.50;;;21.40;1.00;;;;;;5139923;27;20413;-59
2023/09/09 07:15:50;;;;;;;4.20;3.08;;;21.40;1.00;;;;;;5126478;27;20439;-59
2023/09/09 07:18:18;;;;;;;4.10;3.20;;;21.50;1.00;;;;;;5132521;27;20562;-59
2023/09/09 07:20:46;;;;;;;4.60;3.17;;;21.50;1.00;;;;;;5130269;27;20742;-59
2023/09/09 07:23:15;;;;;;;4.60;3.30;;;21.60;1.00;;;;;;5118929;28;20424;-59
2023/09/09 07:25:43;;;;;;;3.90;3.60;;;21.70;1.00;;;;;;5130507;27;20471;-59
2023/09/09 07:28:11;;;;;;;3.95;3.65;;;21.70;1.00;;;;;;5125501;27;20716;-59
2023/09/09 07:30:38;;;;;;;3.30;2.90;;;21.90;1.00;;;;;;5111064;27;21028;-59
2023/09/09 07:33:06;;;;;;;3.47;3.17;;;22.00;1.00;;;;;;5120931;27;20441;-59
2023/09/09 07:35:36;;;;;;;3.47;2.13;;;22.10;1.00;;;;;;5136244;27;20422;-60
2023/09/09 07:38:05;;;;;;;4.40;2.78;;;22.10;1.00;;;;;;5121953;27;20448;-59
2023/09/09 07:40:33;;;;;;;3.13;2.83;;;22.30;99.90;;;;;;5114750;28;20412;-59
2023/09/09 07:43:05;;;;;;;3.70;3.07;;;22.40;99.90;;;;;;5115910;28;20901;-59
2023/09/09 07:45:32;;;;;;;3.57;3.10;;;22.60;99.90;;;;;;5116802;28;20434;-58
2023/09/09 07:47:59;;;;;;;6.20;3.63;;;22.70;99.90;;;;;;5117008;28;20424;-59
2023/09/09 07:50:27;;;;;;;3.33;2.55;;;22.70;99.90;;;;;;5117479;27;20910;-58
2023/09/09 07:52:54;;;;;;;4.13;3.25;;;22.70;99.90;;;;;;5128436;27;20424;-60
2023/09/09 07:55:21;;;;;;;3.78;2.97;;;22.70;99.90;;;;;;5118170;27;20534;-60
2023/09/09 07:57:50;;;;;;;2.60;2.40;;;22.80;99.90;;;;;;5129151;27;20517;-60
2023/09/09 08:00:18;;;;;;;3.92;3.05;;;22.90;81.00;;;;;;5136563;27;20512;-60
2023/09/09 08:02:45;;;;;;;4.57;3.50;;;23.00;1.00;;;;;;5135855;27;20691;-60
2023/09/09 08:05:13;;;;;;;4.10;3.40;;;23.10;1.00;;;;;;5130588;27;20443;-60
2023/09/09 08:07:40;;;;;;;3.40;2.88;;;23.30;1.00;;;;;;5117702;27;20431;-60
2023/09/09 08:10:10;;;;;;;4.65;3.10;;;23.30;1.00;;;;;;5125299;27;20474;-61
2023/09/09 08:12:37;;;;;;;3.88;2.88;;;23.40;1.00;;;;;;5116947;27;20471;-60
2023/09/09 08:15:07;;;;;;;4.60;2.85;;;23.40;99.90;;;;;;5116970;28;20417;-60
2023/09/09 08:17:35;;;;;;;2.80;2.60;;;23.40;99.90;;;;;;5121235;27;20749;-59
2023/09/09 08:20:07;;;;;;;4.30;2.75;;;23.60;99.90;;;;;;5117104;28;20463;-60
2023/09/09 08:22:34;;;;;;;3.90;3.38;;;23.70;1.00;;;;;;5132957;27;20931;-59
2023/09/09 08:25:02;;;;;;;3.30;2.47;;;23.70;1.00;;;;;;5129390;27;21019;-59
2023/09/09 08:27:29;;;;;;;3.70;2.67;;;23.70;1.00;;;;;;5116960;27;20439;-59
2023/09/09 08:29:57;;;;;;;3.13;2.50;;;23.80;99.90;;;;;;5116750;27;20432;-59
2023/09/09 08:32:25;;;;;;;4.45;3.53;;;23.90;99.90;;;;;;5115280;28;20721;-59
2023/09/09 08:34:53;;;;;;;3.20;2.45;;;24.00;99.90;;;;;;5116012;27;20416;-59
2023/09/09 08:37:20;;;;;;;3.20;2.85;;;24.10;1.00;;;;;;5123035;27;20757;-59
2023/09/09 08:39:54;;;;;;;4.40;3.15;;;24.20;1.00;;;;;;5122084;27;20460;-59
2023/09/09 08:42:31;;;;;;;3.88;2.80;;;24.30;99.90;;;;;;5122622;27;20506;-59
2023/09/09 08:45:06;;;;;;;3.53;2.45;;;24.30;99.90;;;;;;5124131;27;20435;-59
2023/09/09 08:47:37;;;;;;;3.80;3.40;;;24.30;99.90;;;;;;5132996;27;20441;-59
2023/09/09 08:50:06;;;;;;;2.78;2.53;;;24.30;99.90;;;;;;5125647;27;20430;-61
2023/09/09 08:52:33;;;;;;;2.70;2.40;;;24.30;99.90;;;;;;5117408;27;20452;-59
2023/09/09 08:55:01;;;;;;;4.10;3.28;;;24.50;1.00;;;;;;5120072;27;20430;-59
2023/09/09 08:57:29;;;;;;;4.00;3.70;;;24.60;1.00;;;;;;5115850;27;20467;-59
2023/09/09 08:59:58;;;;;;;3.15;2.60;;;24.80;1.00;;;;;;5124817;27;20441;-60
2023/09/09 09:02:25;;;;;;;3.13;2.88;;;24.90;99.90;;;;;;5132134;27;20776;-61
2023/09/09 09:04:56;;;;;;;3.55;3.22;;;24.90;99.90;;;;;;5133836;27;20743;-60
2023/09/09 09:07:27;;;;;;;3.58;2.30;;;25.00;99.90;;;;;;5135025;27;20477;-61
2023/09/09 09:09:55;;;;;;;3.63;2.40;;;25.00;99.90;;;;;;5135818;27;20428;-61
2023/09/09 09:12:23;;;;;;;2.90;2.40;;;25.20;52.90;;;;;;5135804;27;20832;-61
2023/09/09 09:14:50;;;;;;;2.63;2.33;;;25.30;1.00;;;;;;5135649;27;20421;-61
2023/09/09 09:17:18;;;;;;;3.33;2.70;;;25.40;1.00;;;;;;5135441;27;20826;-59
2023/09/09 09:19:45;;;;;;;3.10;2.80;;;25.60;1.00;;;;;;5114925;28;20500;-59
2023/09/09 09:22:14;;;;;;;2.90;2.60;;;25.60;99.90;;;;;;5127826;27;20434;-60
2023/09/09 09:24:42;;;;;;;4.20;3.15;;;25.70;99.90;;;;;;5134499;27;20499;-59
2023/09/09 09:27:10;;;;;;;2.90;2.60;;;25.70;99.90;;;;;;5116338;27;20882;-60
2023/09/09 09:29:42;;;;;;;2.78;2.50;;;25.80;99.90;;;;;;5114687;27;20456;-59
2023/09/09 09:32:10;;;;;;;3.22;2.60;;;25.90;99.90;;;;;;5125299;27;20493;-60
2023/09/09 09:34:38;;;;;;;3.00;2.20;;;26.00;90.60;;;;;;5126285;27;20420;-60
2023/09/09 09:37:10;;;;;;;3.10;2.80;;;26.00;18.40;;;;;;5116650;27;20428;-60
2023/09/09 09:39:40;;;;;;;3.20;2.90;;;26.00;23.10;;;;;;5116213;27;20432;-60
2023/09/09 09:42:11;;;;;;;3.90;2.20;;;26.10;1.00;;;;;;5113461;27;20498;-60
2023/09/09 09:44:46;;;;;;;3.03;2.72;;;26.20;1.00;;;;;;5107260;27;20383;-58
2023/09/09 09:47:14;;;;;;;2.72;2.53;;;26.40;1.00;;;;;;5101817;28;20828;-60
2023/09/09 09:49:44;;;;;;;2.78;2.50;;;26.50;1.00;;;;;;5103120;28;20540;-60
2023/09/09 09:52:22;;;;;;;3.08;2.83;;;26.70;1.00;;;;;;5106876;28;20885;-59
2023/09/09 09:54:53;;;;;;;2.50;2.30;;;26.80;1.00;;;;;;5105088;28;20528;-59
2023/09/09 09:57:22;;;;;;;3.10;2.53;;;26.90;1.00;;;;;;5107200;28;20835;-61
2023/09/09 09:59:50;;;;;;;2.45;2.22;;;27.20;1.00;;;;;;5107604;28;20942;-60
2023/09/09 10:02:19;;;;;;;3.80;2.50;;;27.40;99.90;;;;;;5109383;28;20819;-60
2023/09/09 10:04:51;;;;;;;3.13;2.40;;;27.50;99.90;;;;;;5111062;28;20523;-60
2023/09/09 10:07:23;;;;;;;2.80;2.25;;;27.70;99.90;;;;;;5110755;28;20425;-60
2023/09/09 10:09:56;;;;;;;2.57;1.60;;;28.00;99.90;;;;;;5110247;28;20498;-59
2023/09/09 10:12:31;;;;;;;1.98;1.50;;;28.30;99.90;;;;;;5110856;28;20455;-60
2023/09/09 10:15:03;;;;;;;1.80;1.50;;;28.60;98.00;;;;;;5109646;28;20417;-60
2023/09/09 10:17:31;;;;;;;3.40;2.10;;;28.80;2.90;;;;;;5110235;28;20421;-60
2023/09/09 10:20:01;;;;;;;2.70;2.30;;;28.90;1.00;;;;;;5110139;28;20774;-60
2023/09/09 10:22:29;;;;;;;3.40;2.20;;;28.70;1.00;;;;;;5108634;28;20452;-60
2023/09/09 10:24:58;;;;;;;4.20;1.80;;;29.00;1.00;;;;;;5109480;28;20891;-61
2023/09/09 10:27:28;;;;;;;3.13;2.80;;;29.30;1.00;;;;;;5110880;28;20477;-60
2023/09/09 10:29:57;;;;;;;2.60;1.65;;;29.40;1.00;;;;;;5103329;28;20943;-61
2023/09/09 10:32:26;;;;;;;2.57;1.57;;;29.60;1.00;;;;;;5106128;28;20437;-60
2023/09/09 10:34:54;;;;;;;2.20;1.40;;;29.80;1.00;;;;;;5099339;28;20741;-60
2023/09/09 10:37:23;;;;;;;2.10;1.30;;;29.90;1.00;;;;;;5102200;28;20777;-60
2023/09/09 10:39:52;;;;;;;1.50;1.20;;;29.80;1.00;;;;;;5108889;28;20508;-61
2023/09/09 10:42:20;;;;;;;1.80;1.20;;;30.00;1.00;;;;;;5108004;28;20524;-67
2023/09/09 10:44:48;;;;;;;2.33;1.10;;;30.00;1.00;;;;;;5108779;28;20508;-67
2023/09/09 10:47:16;;;;;;;1.95;1.30;;;30.20;1.00;;;;;;5129385;28;20707;-67
2023/09/09 10:49:45;;;;;;;2.30;1.60;;;30.30;1.00;;;;;;5130082;27;21024;-67
2023/09/09 10:52:33;;;;;;;2.00;1.50;;;30.30;1.00;;;;;;5128253;27;20415;-67
2023/09/09 10:55:12;;;;;;;2.40;1.88;;;30.50;1.00;;;;;;5109862;27;20434;-67
2023/09/09 10:57:39;;;;;;;3.42;1.70;;;30.70;1.00;;;;;;5078447;28;20421;-66
2023/09/09 11:00:09;;;;;;;2.05;1.40;;;30.80;1.00;;;;;;5092010;28;20517;-66
2023/09/09 11:02:46;;;;;;;2.03;1.83;;;30.90;1.00;;;;;;5093084;28;20597;-67
2023/09/09 11:05:16;;;;;;;2.00;1.20;;;31.10;1.00;;;;;;5094446;28;20532;-67
2023/09/09 11:07:45;;;;;;;2.30;1.50;;;31.20;1.00;;;;;;5078163;28;20447;-70
2023/09/09 11:10:16;;;;;;;1.80;1.20;;;31.20;1.00;;;;;;5097037;28;20461;-69
2023/09/09 11:12:52;;;;;;;3.63;1.30;;;31.30;1.00;;;;;;5098767;28;20424;-68
2023/09/09 11:15:19;;;;;;;2.50;1.30;;;31.40;1.00;;;;;;5109421;27;20440;-68
2023/09/09 11:17:47;;;;;;;2.10;1.30;;;31.00;1.00;;;;;;5113772;28;20408;-67
2023/09/09 11:20:16;;;;;;;3.40;1.20;;;31.30;1.00;;;;;;5109395;28;20438;-67
2023/09/09 11:22:44;;;;;;;1.92;1.20;;;31.20;1.00;;;;;;5114965;28;20507;-69
2023/09/09 11:25:11;;;;;;;3.80;1.30;;;31.40;1.00;;;;;;5113810;28;20435;-67
2023/09/09 11:27:39;;;;;;;2.97;1.20;;;31.70;1.00;;;;;;5115822;28;20420;-68
2023/09/09 11:30:07;;;;;;;1.80;1.20;;;31.40;1.00;;;;;;5116008;28;20458;-68
2023/09/09 11:32:34;;;;;;;1.48;1.10;;;31.50;1.00;;;;;;5115913;28;20511;-67
2023/09/09 11:35:04;;;;;;;2.35;1.23;;;31.50;1.00;;;;;;5114707;28;20428;-67
2023/09/09 11:37:33;;;;;;;2.20;1.30;;;31.70;1.00;;;;;;5115168;28;20829;-68
2023/09/09 11:40:00;;;;;;;1.60;1.10;;;31.80;1.00;;;;;;5115646;28;20435;-68
2023/09/09 11:42:27;;;;;;;1.60;1.10;;;31.80;1.00;;;;;;5115366;28;20451;-68
2023/09/09 11:44:55;;;;;;;2.42;1.20;;;31.70;1.00;;;;;;5110335;27;20439;-66
2023/09/09 11:47:22;;;;;;;1.10;0.90;;;31.90;1.00;;;;;;5103444;28;20538;-67
2023/09/09 11:49:50;;;;;;;2.40;1.10;;;32.20;1.00;;;;;;5107429;28;20541;-68
2023/09/09 11:52:20;;;;;;;1.20;1.00;;;32.20;1.00;;;;;;5107534;28;20438;-63
2023/09/09 11:54:50;;;;;;;1.30;1.00;;;32.20;1.00;;;;;;5111561;28;20440;-67
2023/09/09 11:57:17;;;;;;;1.90;0.90;;;32.00;1.00;;;;;;5114622;27;20472;-66
2023/09/09 11:59:45;;;;;;;1.30;1.00;;;32.00;1.00;;;;;;5115666;28;20415;-66
2023/09/09 12:02:20;;;;;;;1.90;1.00;;;32.20;1.00;;;;;;5113875;28;20466;-66
2023/09/09 12:05:05;;;;;;;1.90;1.10;;;32.30;1.00;;;;;;5114164;28;20432;-66
2023/09/09 12:07:35;;;;;;;3.20;0.90;;;32.30;1.00;;;;;;5110756;28;20432;-67
2023/09/09 12:10:12;;;;;;;2.00;1.00;;;32.30;1.00;;;;;;5113815;28;20513;-66
2023/09/09 12:12:41;;;;;;;1.73;1.00;;;32.30;1.00;;;;;;5114026;28;20486;-66
2023/09/09 12:15:10;;;;;;;1.95;1.00;;;32.30;1.00;;;;;;5113888;28;20414;-66
2023/09/09 12:17:38;;;;;;;2.10;1.00;;;32.30;1.00;;;;;;5114065;28;20717;-66
2023/09/09 12:20:08;;;;;;;2.65;1.02;;;32.60;1.00;;;;;;5114514;28;20541;-66
2023/09/09 12:22:36;;;;;;;1.90;0.90;;;32.50;1.00;;;;;;5114204;28;20489;-66
2023/09/09 12:25:07;;;;;;;3.30;1.10;;;32.60;1.00;;;;;;5115215;28;20466;-67
2023/09/09 12:27:42;;;;;;;1.40;1.10;;;32.50;1.00;;;;;;5113283;28;20427;-66
2023/09/09 12:30:25;;;;;;;2.70;1.00;;;32.50;1.00;;;;;;5113065;28;20502;-66
2023/09/09 12:32:52;;;;;;;2.28;1.00;;;32.50;1.00;;;;;;5114056;27;21034;-67
2023/09/09 12:35:20;;;;;;;2.10;1.02;;;32.60;1.00;;;;;;5114770;28;20807;-66
2023/09/09 12:37:47;;;;;;;2.50;1.00;;;32.70;1.00;;;;;;5114615;28;20511;-67
2023/09/09 12:40:16;;;;;;;3.40;1.10;;;32.30;1.00;;;;;;5115625;28;20743;-67
2023/09/09 12:42:43;;;;;;;2.17;1.08;;;31.90;1.00;;;;;;5114848;28;20860;-67
2023/09/09 12:45:11;;;;;;;2.20;1.00;;;31.70;1.00;;;;;;5115450;28;20815;-67
2023/09/09 12:47:38;;;;;;;1.40;1.10;;;31.60;1.00;;;;;;5111361;27;21804;-67
2023/09/09 12:50:06;;;;;;;2.00;1.00;;;31.60;1.00;;;;;;5109786;28;20432;-67
2023/09/09 12:52:34;;;;;;;1.70;1.00;;;31.80;1.00;;;;;;5106995;28;20520;-67
2023/09/09 12:55:01;;;;;;;1.40;0.98;;;31.80;1.00;;;;;;5115180;28;20515;-66
2023/09/09 12:57:30;;;;;;;1.38;1.10;;;31.80;1.00;;;;;;5116939;27;20454;-67
2023/09/09 12:59:57;;;;;;;2.20;1.00;;;31.70;1.00;;;;;;5116875;27;20424;-67
2023/09/09 13:02:24;;;;;;;2.83;1.13;;;31.80;1.00;;;;;;5113584;27;20785;-67